createdAt,value
2022-11-23T00:00:46.871Z,8.35
2022-11-23T00:03:16.715Z,8.35
2022-11-23T00:05:44.463Z,8.42
2022-11-23T00:08:12.316Z,8.43
2022-11-23T00:10:40.138Z,8.47
2022-11-23T00:13:07.940Z,8.52
2022-11-23T00:15:37.159Z,8.51
2022-11-23T00:18:05.033Z,8.52
2022-11-23T00:20:32.841Z,8.50
2022-11-23T00:23:00.768Z,8.50
2022-11-23T00:25:29.457Z,8.50
2022-11-23T00:27:57.236Z,8.52
2022-11-23T00:30:25.026Z,8.58
2022-11-23T00:32:55.769Z,8.56
2022-11-23T00:35:24.473Z,8.57
2022-11-23T00:37:52.367Z,8.59
2022-11-23T00:40:20.249Z,8.58
2022-11-23T00:42:48.220Z,8.60
2022-11-23T00:45:16.173Z,8.59
2022-11-23T00:47:43.892Z,8.61
2022-11-23T00:50:13.094Z,8.63
2022-11-23T00:52:40.869Z,8.61
2022-11-23T00:55:09.647Z,8.62
2022-11-23T00:57:37.555Z,8.66
2022-11-23T01:00:07.058Z,8.64
2022-11-23T01:02:36.753Z,8.64
2022-11-23T01:05:05.788Z,8.63
2022-11-23T01:07:35.123Z,8.64
2022-11-23T01:10:05.058Z,8.66
2022-11-23T01:12:34.293Z,8.67
2022-11-23T01:15:02.247Z,8.68
2022-11-23T01:17:29.996Z,8.68
2022-11-23T01:19:58.041Z,8.69
2022-11-23T01:22:25.743Z,8.69
2022-11-23T01:24:54.893Z,8.70
2022-11-23T01:27:22.674Z,8.70
2022-11-23T01:29:51.741Z,8.73
2022-11-23T01:32:20.450Z,8.71
2022-11-23T01:34:48.410Z,8.71
2022-11-23T01:37:16.197Z,8.70
2022-11-23T01:39:45.697Z,8.68
2022-11-23T01:42:17.915Z,8.68
2022-11-23T01:44:46.072Z,8.67
2022-11-23T01:47:13.978Z,8.65
2022-11-23T01:49:44.837Z,8.64
2022-11-23T01:52:17.008Z,8.61
2022-11-23T01:54:47.753Z,8.54
2022-11-23T01:57:20.334Z,8.52
2022-11-23T01:59:49.582Z,8.51
2022-11-23T02:02:18.421Z,8.50
2022-11-23T02:04:48.859Z,8.48
2022-11-23T02:07:18.698Z,8.49
2022-11-23T02:09:48.261Z,8.48
2022-11-23T02:12:17.809Z,8.47
2022-11-23T02:14:46.736Z,8.44
2022-11-23T02:17:14.979Z,8.44
2022-11-23T02:19:55.025Z,8.46
2022-11-23T02:22:29.264Z,8.44
2022-11-23T02:24:57.470Z,8.45
2022-11-23T02:27:28.479Z,8.44
2022-11-23T02:30:01.279Z,8.47
2022-11-23T02:32:30.047Z,8.45
2022-11-23T02:34:57.891Z,8.46
2022-11-23T02:37:26.337Z,8.49
2022-11-23T02:39:55.417Z,8.47
2022-11-23T02:42:24.776Z,8.46
2022-11-23T02:45:00.728Z,8.44
2022-11-23T02:47:28.608Z,8.47
2022-11-23T02:49:56.692Z,8.42
2022-11-23T02:52:24.614Z,8.39
2022-11-23T02:54:52.471Z,8.41
2022-11-23T02:57:20.289Z,8.42
2022-11-23T02:59:48.140Z,8.40
2022-11-23T03:02:17.284Z,8.41
2022-11-23T03:04:45.065Z,8.37
2022-11-23T03:07:13.160Z,8.36
2022-11-23T03:09:41.176Z,8.34
2022-11-23T03:12:10.243Z,8.31
2022-11-23T03:14:38.695Z,8.33
2022-11-23T03:17:06.984Z,8.31
2022-11-23T03:19:43.347Z,8.33
2022-11-23T03:22:12.564Z,8.29
2022-11-23T03:24:40.485Z,8.33
2022-11-23T03:27:11.296Z,8.29
2022-11-23T03:29:41.647Z,8.30
2022-11-23T03:32:15.436Z,8.29
2022-11-23T03:34:48.348Z,8.27
2022-11-23T03:37:18.548Z,8.28
2022-11-23T03:39:47.689Z,8.28
2022-11-23T03:42:24.585Z,8.29
2022-11-23T03:44:52.465Z,8.30
2022-11-23T03:47:20.432Z,8.27
2022-11-23T03:49:49.748Z,8.28
2022-11-23T03:52:17.819Z,8.28
2022-11-23T03:54:47.011Z,8.24
2022-11-23T03:57:15.405Z,8.26
2022-11-23T03:59:43.336Z,8.23
2022-11-23T04:02:11.791Z,8.28
2022-11-23T04:04:48.828Z,8.24
2022-11-23T04:07:47.350Z,8.22
2022-11-23T04:10:15.848Z,8.23
2022-11-23T04:13:12.949Z,8.23
2022-11-23T04:15:40.823Z,8.20
2022-11-23T04:18:09.756Z,8.20
2022-11-23T04:20:41.552Z,8.20
2022-11-23T04:23:13.242Z,8.18
2022-11-23T04:25:42.111Z,8.21
2022-11-23T04:28:11.083Z,8.23
2022-11-23T04:30:39.542Z,8.24
2022-11-23T04:33:07.884Z,8.22
2022-11-23T04:35:38.010Z,8.24
2022-11-23T04:38:07.213Z,8.27
2022-11-23T04:40:35.009Z,8.28
2022-11-23T04:43:04.471Z,8.30
2022-11-23T04:45:39.499Z,8.29
2022-11-23T04:48:11.048Z,8.31
2022-11-23T04:50:40.725Z,8.30
2022-11-23T04:53:11.749Z,8.32
2022-11-23T04:55:47.520Z,8.33
2022-11-23T04:58:16.725Z,8.33
2022-11-23T05:00:44.726Z,8.34
2022-11-23T05:03:15.902Z,8.29
2022-11-23T05:05:44.616Z,8.29
2022-11-23T05:08:13.788Z,8.24
2022-11-23T05:10:56.019Z,8.22
2022-11-23T05:13:25.671Z,8.19
2022-11-23T05:15:53.538Z,8.20
2022-11-23T05:18:26.397Z,8.20
2022-11-23T05:20:54.588Z,8.17
2022-11-23T05:23:24.277Z,8.19
2022-11-23T05:25:54.429Z,8.20
2022-11-23T05:28:40.701Z,8.19
2022-11-23T05:31:12.225Z,8.16
2022-11-23T05:33:40.477Z,8.15
2022-11-23T05:36:13.645Z,8.15
2022-11-23T05:38:44.653Z,8.11
2022-11-23T05:41:22.191Z,8.09
2022-11-23T05:43:54.628Z,8.07
2022-11-23T05:46:26.936Z,8.04
2022-11-23T05:48:55.375Z,8.01
2022-11-23T05:51:24.680Z,8.03
2022-11-23T05:53:54.647Z,8.00
2022-11-23T05:56:40.573Z,8.03
2022-11-23T05:59:17.981Z,8.02
2022-11-23T06:01:51.271Z,7.99
2022-11-23T06:04:26.098Z,7.97
2022-11-23T06:06:57.423Z,7.99
2022-11-23T06:09:26.773Z,7.99
2022-11-23T06:11:58.055Z,7.98
2022-11-23T06:14:26.294Z,7.98
2022-11-23T06:16:54.771Z,8.01
2022-11-23T06:19:48.564Z,8.01
2022-11-23T06:22:16.474Z,8.00
2022-11-23T06:25:03.101Z,8.00
2022-11-23T06:27:42.243Z,7.98
2022-11-23T06:30:17.664Z,7.95
2022-11-23T06:32:46.088Z,7.92
2022-11-23T06:35:13.977Z,7.96
2022-11-23T06:37:43.473Z,7.95
2022-11-23T06:40:13.544Z,7.96
2022-11-23T06:42:42.520Z,7.97
2022-11-23T06:45:24.968Z,7.94
2022-11-23T06:47:56.097Z,7.93
2022-11-23T06:50:24.217Z,7.91
2022-11-23T06:52:56.312Z,7.91
2022-11-23T06:55:34.196Z,7.93
2022-11-23T06:58:02.438Z,7.94
2022-11-23T07:00:30.393Z,7.96
2022-11-23T07:02:58.430Z,7.96
2022-11-23T07:05:26.330Z,7.96
2022-11-23T07:07:55.166Z,7.96
2022-11-23T07:10:27.382Z,7.96
2022-11-23T07:13:06.305Z,7.95
2022-11-23T07:15:37.124Z,8.00
2022-11-23T07:18:05.875Z,8.00
2022-11-23T07:20:35.486Z,7.99
2022-11-23T07:23:08.864Z,7.98
2022-11-23T07:25:38.959Z,8.02
2022-11-23T07:28:09.281Z,8.05
2022-11-23T07:30:37.518Z,8.07
2022-11-23T07:33:08.381Z,8.10
2022-11-23T07:35:39.170Z,8.13
2022-11-23T07:38:07.928Z,8.16
2022-11-23T07:40:37.107Z,8.21
2022-11-23T07:43:06.527Z,8.23
2022-11-23T07:45:36.721Z,8.21
2022-11-23T07:48:08.536Z,8.26
2022-11-23T07:50:37.986Z,8.35
2022-11-23T07:53:07.557Z,8.39
2022-11-23T07:55:35.932Z,8.34
2022-11-23T07:58:04.826Z,8.38
2022-11-23T08:00:32.689Z,8.30
2022-11-23T08:03:26.534Z,8.24
2022-11-23T08:05:49.726Z,8.22
2022-11-23T08:08:17.546Z,8.17
2022-11-23T08:10:51.407Z,8.13
2022-11-23T08:13:20.812Z,8.15
2022-11-23T08:15:54.382Z,8.11
2022-11-23T08:18:25.168Z,8.11
2022-11-23T08:20:52.954Z,8.21
2022-11-23T08:23:21.692Z,8.28
2022-11-23T08:25:49.663Z,8.38
2022-11-23T08:28:17.884Z,8.45
2022-11-23T08:30:45.772Z,8.39
2022-11-23T08:33:14.787Z,8.45
2022-11-23T08:35:44.876Z,8.50
2022-11-23T08:38:12.870Z,8.55
2022-11-23T08:40:40.671Z,8.80
2022-11-23T08:43:08.594Z,8.81
2022-11-23T08:45:36.432Z,8.71
2022-11-23T08:48:05.298Z,8.82
2022-11-23T08:50:34.349Z,9.12
2022-11-23T08:53:03.883Z,9.20
2022-11-23T08:55:31.646Z,9.32
2022-11-23T08:57:59.944Z,9.57
2022-11-23T09:00:28.821Z,9.54
2022-11-23T09:02:58.824Z,9.24
2022-11-23T09:05:26.786Z,9.21
2022-11-23T09:07:55.239Z,9.15
2022-11-23T09:10:24.506Z,8.98
2022-11-23T09:12:52.750Z,9.01
2022-11-23T09:15:21.454Z,9.21
2022-11-23T09:17:49.228Z,9.25
2022-11-23T09:20:17.406Z,9.33
2022-11-23T09:22:45.544Z,9.46
2022-11-23T09:25:13.646Z,9.41
2022-11-23T09:27:42.857Z,9.35
2022-11-23T09:30:12.139Z,9.35
2022-11-23T09:32:39.968Z,9.45
2022-11-23T09:35:08.726Z,9.69
2022-11-23T09:37:36.944Z,9.73
2022-11-23T09:40:05.348Z,9.58
2022-11-23T09:42:59.288Z,9.38
2022-11-23T09:45:35.726Z,9.39
2022-11-23T09:48:25.824Z,9.27
2022-11-23T09:51:00.608Z,9.34
2022-11-23T09:53:34.675Z,9.60
2022-11-23T09:56:02.979Z,9.64
2022-11-23T09:58:40.675Z,9.72
2022-11-23T10:01:13.046Z,9.55
2022-11-23T10:03:48.284Z,9.44
2022-11-23T10:06:20.920Z,9.45
2022-11-23T10:09:13.520Z,9.62
2022-11-23T10:12:09.667Z,9.42
2022-11-23T10:14:54.982Z,9.35
2022-11-23T10:17:30.224Z,9.25
2022-11-23T10:20:16.703Z,9.35
2022-11-23T10:22:49.280Z,9.49
2022-11-23T10:25:18.964Z,9.44
2022-11-23T10:27:49.609Z,9.54
2022-11-23T10:30:20.498Z,9.50
2022-11-23T10:32:53.355Z,9.62
2022-11-23T10:35:28.246Z,9.87
2022-11-23T10:38:03.708Z,9.93
2022-11-23T10:40:31.467Z,9.88
2022-11-23T10:43:02.802Z,10.05
2022-11-23T10:45:32.023Z,9.78
2022-11-23T10:48:01.790Z,9.73
2022-11-23T10:50:33.481Z,10.37
2022-11-23T10:53:13.716Z,10.55
2022-11-23T10:55:49.165Z,10.29
2022-11-23T10:58:27.586Z,11.12
2022-11-23T11:01:05.040Z,11.08
2022-11-23T11:03:35.577Z,11.19
2022-11-23T11:06:09.535Z,11.52
2022-11-23T11:08:49.650Z,12.04
2022-11-23T11:11:25.350Z,12.03
2022-11-23T11:14:03.827Z,11.22
2022-11-23T11:16:35.288Z,11.21
2022-11-23T11:19:23.925Z,11.21
2022-11-23T11:21:51.734Z,10.59
2022-11-23T11:24:22.780Z,10.31
2022-11-23T11:26:53.177Z,10.32
2022-11-23T11:29:38.369Z,10.27
2022-11-23T11:32:14.840Z,10.52
2022-11-23T11:34:46.027Z,10.59
2022-11-23T11:37:21.612Z,10.36
2022-11-23T11:39:51.950Z,10.15
2022-11-23T11:42:22.237Z,10.11
2022-11-23T11:44:56.219Z,10.12
2022-11-23T11:47:31.119Z,10.03
2022-11-23T11:50:02.531Z,10.18
2022-11-23T11:52:37.211Z,10.20
2022-11-23T11:55:12.850Z,10.10
2022-11-23T11:57:43.455Z,10.34
2022-11-23T12:00:16.457Z,10.38
2022-11-23T12:02:59.431Z,10.22
2022-11-23T12:05:35.092Z,10.12
2022-11-23T12:08:07.681Z,10.21
2022-11-23T12:10:41.732Z,10.25
2022-11-23T12:13:14.232Z,10.35
2022-11-23T12:15:49.891Z,10.23
2022-11-23T12:18:49.907Z,10.26
2022-11-23T12:21:29.812Z,10.27
2022-11-23T12:24:07.997Z,10.63
2022-11-23T12:26:46.203Z,10.53
2022-11-23T12:29:42.848Z,10.56
2022-11-23T12:32:22.351Z,10.72
2022-11-23T12:35:20.972Z,10.92
2022-11-23T12:38:03.942Z,11.04
2022-11-23T12:40:52.395Z,11.30
2022-11-23T12:43:24.972Z,11.22
2022-11-23T12:46:14.491Z,10.62
2022-11-23T12:49:05.302Z,10.21
2022-11-23T12:51:41.225Z,10.38
2022-11-23T12:54:26.475Z,10.34
2022-11-23T12:57:02.293Z,10.24
2022-11-23T12:59:41.023Z,10.10
2022-11-23T13:02:25.130Z,10.17
2022-11-23T13:05:20.289Z,10.28
2022-11-23T13:08:22.393Z,10.34
2022-11-23T13:11:00.449Z,10.41
2022-11-23T13:13:42.581Z,10.73
2022-11-23T13:16:41.422Z,10.55
2022-11-23T13:19:41.407Z,10.78
2022-11-23T13:22:12.583Z,10.84
2022-11-23T13:25:02.163Z,10.68
2022-11-23T13:27:43.907Z,10.44
2022-11-23T13:30:45.600Z,10.45
2022-11-23T13:33:34.255Z,10.49
2022-11-23T13:36:10.403Z,10.42
2022-11-23T13:38:45.721Z,10.33
2022-11-23T13:41:55.039Z,10.43
2022-11-23T13:44:27.515Z,10.43
2022-11-23T13:47:06.625Z,10.56
2022-11-23T13:49:40.833Z,10.56
2022-11-23T13:52:28.171Z,10.53
2022-11-23T13:54:59.778Z,10.49
2022-11-23T13:57:30.597Z,10.35
2022-11-23T14:00:30.956Z,10.12
2022-11-23T14:03:32.387Z,10.02
2022-11-23T14:06:04.222Z,9.89
2022-11-23T14:08:35.088Z,10.00
2022-11-23T14:11:12.901Z,9.86
2022-11-23T14:13:46.514Z,9.81
2022-11-23T14:16:24.380Z,9.78
2022-11-23T14:19:02.654Z,9.78
2022-11-23T14:21:41.224Z,9.73
2022-11-23T14:24:45.779Z,9.64
2022-11-23T14:30:37.244Z,9.57
2022-11-23T14:33:17.805Z,9.52
2022-11-23T14:35:53.363Z,9.52
2022-11-23T14:38:55.078Z,9.51
2022-11-23T14:41:25.681Z,9.52
2022-11-23T14:43:55.216Z,9.47
2022-11-23T14:46:25.474Z,9.45
2022-11-23T14:49:03.580Z,9.48
2022-11-23T14:51:32.311Z,9.47
2022-11-23T14:54:03.667Z,9.49
2022-11-23T14:56:35.047Z,9.50
2022-11-23T14:59:05.667Z,9.51
2022-11-23T15:01:34.750Z,9.53
2022-11-23T15:04:09.638Z,9.54
2022-11-23T15:06:45.904Z,9.60
2022-11-23T15:09:22.412Z,9.53
2022-11-23T15:11:50.279Z,9.50
2022-11-23T15:14:20.834Z,9.48
2022-11-23T15:16:49.329Z,9.44
2022-11-23T15:19:27.325Z,9.38
2022-11-23T15:21:55.417Z,9.34
2022-11-23T15:24:26.792Z,9.28
2022-11-23T15:26:58.309Z,9.27
2022-11-23T15:29:31.651Z,9.17
2022-11-23T15:32:28.638Z,9.11
2022-11-23T15:34:49.365Z,9.11
2022-11-23T15:37:18.690Z,9.08
2022-11-23T15:39:48.704Z,9.07
2022-11-23T15:42:19.250Z,9.06
2022-11-23T15:44:51.552Z,9.08
2022-11-23T15:47:27.277Z,9.04
2022-11-23T15:50:01.620Z,8.96
2022-11-23T15:52:32.252Z,8.92
2022-11-23T15:55:09.266Z,8.84
2022-11-23T15:57:39.818Z,8.89
2022-11-23T16:00:09.380Z,8.82
2022-11-23T16:02:40.193Z,8.85
2022-11-23T16:05:14.770Z,8.78
2022-11-23T16:07:54.039Z,8.79
2022-11-23T16:10:25.913Z,8.66
2022-11-23T16:12:55.639Z,8.67
2022-11-23T16:15:42.009Z,8.54
2022-11-23T16:18:22.864Z,8.43
2022-11-23T16:20:53.210Z,8.45
2022-11-23T16:23:23.345Z,8.41
2022-11-23T16:25:59.361Z,8.30
2022-11-23T16:28:30.926Z,8.19
2022-11-23T16:30:59.461Z,8.23
2022-11-23T16:33:27.400Z,8.17
2022-11-23T16:35:55.515Z,8.08
2022-11-23T16:38:23.686Z,8.10
2022-11-23T16:40:51.740Z,8.20
2022-11-23T16:43:20.829Z,8.10
2022-11-23T16:45:51.674Z,8.08
2022-11-23T16:48:39.973Z,8.13
2022-11-23T16:51:10.723Z,8.20
2022-11-23T16:54:11.330Z,8.13
2022-11-23T16:56:28.226Z,8.08
2022-11-23T16:58:57.720Z,7.80
2022-11-23T17:01:27.542Z,7.98
2022-11-23T17:03:55.419Z,7.74
2022-11-23T17:06:23.895Z,7.79
2022-11-23T17:09:00.463Z,7.87
2022-11-23T17:11:36.126Z,7.78
2022-11-23T17:14:05.832Z,7.73
2022-11-23T17:16:34.326Z,7.72
2022-11-23T17:19:02.357Z,7.64
2022-11-23T17:21:30.251Z,7.64
2022-11-23T17:23:58.059Z,7.75
2022-11-23T17:26:35.442Z,7.62
2022-11-23T17:29:06.630Z,7.62
2022-11-23T17:31:34.888Z,7.62
2022-11-23T17:34:02.772Z,7.59
2022-11-23T17:36:31.821Z,7.51
2022-11-23T17:38:59.716Z,7.50
2022-11-23T17:41:27.552Z,7.44
2022-11-23T17:43:55.795Z,7.40
2022-11-23T17:46:25.487Z,7.44
2022-11-23T17:48:57.236Z,7.37
2022-11-23T17:51:25.209Z,7.37
2022-11-23T17:53:53.022Z,7.44
2022-11-23T17:56:23.157Z,7.43
2022-11-23T17:58:52.384Z,7.48
2022-11-23T18:01:22.499Z,7.57
2022-11-23T18:03:51.918Z,7.50
2022-11-23T18:06:23.029Z,7.46
2022-11-23T18:08:52.423Z,7.40
2022-11-23T18:11:21.307Z,7.43
2022-11-23T18:13:50.469Z,7.39
2022-11-23T18:16:19.655Z,7.43
2022-11-23T18:18:47.742Z,7.45
2022-11-23T18:21:17.061Z,7.32
2022-11-23T18:23:45.494Z,7.29
2022-11-23T18:26:17.583Z,7.35
2022-11-23T18:28:45.775Z,7.38
2022-11-23T18:31:13.781Z,7.40
2022-11-23T18:33:41.791Z,7.37
2022-11-23T18:36:10.581Z,7.43
2022-11-23T18:38:40.562Z,7.40
2022-11-23T18:41:09.236Z,7.42
2022-11-23T18:43:37.333Z,7.40
2022-11-23T18:46:07.204Z,7.40
2022-11-23T18:48:35.344Z,7.39
2022-11-23T18:51:03.449Z,7.37
2022-11-23T18:53:31.661Z,7.38
2022-11-23T18:56:04.939Z,7.36
2022-11-23T18:58:33.796Z,7.30
2022-11-23T19:01:12.309Z,7.38
2022-11-23T19:03:41.849Z,7.39
2022-11-23T19:06:13.496Z,7.38
2022-11-23T19:08:41.954Z,7.44
2022-11-23T19:11:16.206Z,7.48
2022-11-23T19:13:44.792Z,7.33
2022-11-23T19:16:15.057Z,7.23
2022-11-23T19:18:43.435Z,7.15
2022-11-23T19:21:15.865Z,7.16
2022-11-23T19:23:43.951Z,7.16
2022-11-23T19:26:13.100Z,7.15
2022-11-23T19:28:44.582Z,7.17
2022-11-23T19:31:13.725Z,7.08
2022-11-23T19:33:41.748Z,7.13
2022-11-23T19:36:11.292Z,7.04
2022-11-23T19:38:39.192Z,7.01
2022-11-23T19:41:07.576Z,6.95
2022-11-23T19:43:36.948Z,7.01
2022-11-23T19:46:07.137Z,6.92
2022-11-23T19:48:35.895Z,6.92
2022-11-23T19:51:05.826Z,6.91
2022-11-23T19:53:35.735Z,6.90
2022-11-23T19:56:05.206Z,6.76
2022-11-23T19:58:34.767Z,6.80
2022-11-23T20:01:05.490Z,6.84
2022-11-23T20:03:35.825Z,6.77
2022-11-23T20:06:06.819Z,6.72
2022-11-23T20:08:34.945Z,6.69
2022-11-23T20:11:08.345Z,6.64
2022-11-23T20:13:36.668Z,6.58
2022-11-23T20:16:08.716Z,6.57
2022-11-23T20:18:36.600Z,6.47
2022-11-23T20:21:04.569Z,6.50
2022-11-23T20:23:32.765Z,6.47
2022-11-23T20:26:00.620Z,6.43
2022-11-23T20:28:28.597Z,6.43
2022-11-23T20:30:56.547Z,6.39
2022-11-23T20:33:25.695Z,6.43
2022-11-23T20:35:53.476Z,6.36
2022-11-23T20:38:21.537Z,6.29
2022-11-23T20:40:50.458Z,6.23
2022-11-23T20:43:18.199Z,6.19
2022-11-23T20:45:46.140Z,6.18
2022-11-23T20:48:13.927Z,6.16
2022-11-23T20:50:43.997Z,6.16
2022-11-23T20:53:11.806Z,6.16
2022-11-23T20:55:39.573Z,6.08
2022-11-23T20:58:08.131Z,6.06
2022-11-23T21:00:35.914Z,6.03
2022-11-23T21:03:03.694Z,5.99
2022-11-23T21:05:31.787Z,5.99
2022-11-23T21:08:01.721Z,6.00
2022-11-23T21:10:46.898Z,6.02
2022-11-23T21:13:48.511Z,5.92
2022-11-23T21:16:17.053Z,5.91
2022-11-23T21:18:44.801Z,5.84
2022-11-23T21:21:12.888Z,5.84
2022-11-23T21:23:42.137Z,5.80
2022-11-23T21:26:09.823Z,5.78
2022-11-23T21:28:37.807Z,5.74
2022-11-23T21:31:08.812Z,5.73
2022-11-23T21:33:37.556Z,5.76
2022-11-23T21:36:06.333Z,5.75
2022-11-23T21:38:36.137Z,5.72
2022-11-23T21:41:10.755Z,5.68
2022-11-23T21:43:38.994Z,5.62
2022-11-23T21:46:09.008Z,5.60
2022-11-23T21:48:37.680Z,5.54
2022-11-23T21:51:07.477Z,5.61
2022-11-23T21:53:35.869Z,5.63
2022-11-23T21:56:08.066Z,5.63
2022-11-23T21:58:36.622Z,5.70
2022-11-23T22:01:05.901Z,5.77
2022-11-23T22:03:37.764Z,5.83
2022-11-23T22:06:06.552Z,5.89
2022-11-23T22:08:34.953Z,5.86
2022-11-23T22:11:13.417Z,5.90
2022-11-23T22:13:43.544Z,5.94
2022-11-23T22:16:17.458Z,5.91
2022-11-23T22:18:46.166Z,5.89
2022-11-23T22:21:14.171Z,5.89
2022-11-23T22:23:42.603Z,5.97
2022-11-23T22:26:13.940Z,5.94
2022-11-23T22:28:43.781Z,5.91
2022-11-23T22:31:13.921Z,5.89
2022-11-23T22:33:42.921Z,5.88
2022-11-23T22:36:14.596Z,5.92
2022-11-23T22:38:43.075Z,5.83
2022-11-23T22:41:14.775Z,5.81
2022-11-23T22:43:43.194Z,5.84
2022-11-23T22:46:12.945Z,5.87
2022-11-23T22:48:42.620Z,5.83
2022-11-23T22:51:12.381Z,5.77
2022-11-23T22:53:44.586Z,5.80
2022-11-23T22:56:15.819Z,5.81
2022-11-23T22:58:44.570Z,5.77
2022-11-23T23:01:14.880Z,5.76
2022-11-23T23:03:43.531Z,5.76
2022-11-23T23:06:16.452Z,5.72
2022-11-23T23:08:45.536Z,5.71
2022-11-23T23:11:16.267Z,5.71
2022-11-23T23:13:44.155Z,5.61
2022-11-23T23:16:14.039Z,5.58
2022-11-23T23:18:42.788Z,5.52
2022-11-23T23:21:12.209Z,5.52
2022-11-23T23:23:41.307Z,5.54
2022-11-23T23:26:09.815Z,5.50
2022-11-23T23:28:40.063Z,5.53
2022-11-23T23:31:10.128Z,5.47
2022-11-23T23:33:38.265Z,5.48
2022-11-23T23:36:07.699Z,5.47
2022-11-23T23:38:36.660Z,5.48
2022-11-23T23:41:05.520Z,5.47
2022-11-23T23:43:34.029Z,5.50
2022-11-23T23:46:05.377Z,5.42
2022-11-23T23:48:34.950Z,5.37
2022-11-23T23:51:06.923Z,5.43
2022-11-23T23:53:34.912Z,5.42
2022-11-23T23:56:06.008Z,5.36
2022-11-23T23:58:34.103Z,5.38
